Aviation Digital Data Service (ADDS)

Output produced by METARs form (0933 UTC 24 March 2019)
found at http://www.aviationweather.gov/metar/data/
 
Forecast for: HLKF (KUFRA (MIL/CIV) , LY)
Text: TAF HLKF 240800Z 2409/2418 25010KT CAVOK
Forecast period: 0900 to 1800 UTC 24 March 2019
Forecast type: FROM: standard forecast or significant change
Winds: from the WSW (250 degrees) at 12 MPH (10 knots; 5.1 m/s)
Visibility: 6 or more miles 10+ km)
Ceiling: unknown
Clouds: missing
Weather: NSW  (no significant weather)